sensor_id;sensor_type;location;lat;lon;timestamp;pressure;altitude;pressure_sealevel;temperature;humidity
53908;BME280;40469;47.998;7.794;2023-02-21T00:02:34;99563.25;;;6.16;100.00
53908;BME280;40469;47.998;7.794;2023-02-21T00:05:18;99566.56;;;6.07;100.00
53908;BME280;40469;47.998;7.794;2023-02-21T00:08:02;99562.19;;;6.03;100.00
53908;BME280;40469;47.998;7.794;2023-02-21T00:10:46;99575.19;;;6.06;100.00
53908;BME280;40469;47.998;7.794;2023-02-21T00:13:29;99555.34;;;6.06;100.00
53908;BME280;40469;47.998;7.794;2023-02-21T00:16:15;99551.81;;;6.03;100.00
53908;BME280;40469;47.998;7.794;2023-02-21T00:18:59;99564.72;;;6.00;100.00
53908;BME280;40469;47.998;7.794;2023-02-21T00:21:43;99550.81;;;5.96;100.00
53908;BME280;40469;47.998;7.794;2023-02-21T00:24:27;99550.75;;;5.93;100.00
53908;BME280;40469;47.998;7.794;2023-02-21T00:27:11;99542.13;;;5.94;100.00
53908;BME280;40469;47.998;7.794;2023-02-21T00:29:54;99540.38;;;5.95;100.00
53908;BME280;40469;47.998;7.794;2023-02-21T00:32:38;99541.16;;;5.89;100.00
53908;BME280;40469;47.998;7.794;2023-02-21T00:35:22;99528.16;;;5.87;100.00
53908;BME280;40469;47.998;7.794;2023-02-21T00:38:06;99522.88;;;5.81;100.00
53908;BME280;40469;47.998;7.794;2023-02-21T00:40:50;99525.34;;;5.75;100.00
53908;BME280;40469;47.998;7.794;2023-02-21T00:43:34;99522.69;;;5.70;100.00
53908;BME280;40469;47.998;7.794;2023-02-21T00:46:18;99527.78;;;5.66;100.00
53908;BME280;40469;47.998;7.794;2023-02-21T00:49:02;99524.22;;;5.61;100.00
53908;BME280;40469;47.998;7.794;2023-02-21T00:51:46;99518.06;;;5.56;100.00
53908;BME280;40469;47.998;7.794;2023-02-21T00:54:30;99518.09;;;5.57;100.00
53908;BME280;40469;47.998;7.794;2023-02-21T00:57:14;99519.88;;;5.58;100.00
53908;BME280;40469;47.998;7.794;2023-02-21T01:02:32;99516.44;;;5.61;100.00
53908;BME280;40469;47.998;7.794;2023-02-21T01:05:16;99520.84;;;5.63;100.00
53908;BME280;40469;47.998;7.794;2023-02-21T01:08:00;99514.84;;;5.67;100.00
53908;BME280;40469;47.998;7.794;2023-02-21T01:10:44;99509.63;;;5.66;100.00
53908;BME280;40469;47.998;7.794;2023-02-21T01:13:28;99509.63;;;5.66;100.00
53908;BME280;40469;47.998;7.794;2023-02-21T01:16:12;99514.03;;;5.68;100.00
53908;BME280;40469;47.998;7.794;2023-02-21T01:18:56;99508.91;;;5.73;100.00
53908;BME280;40469;47.998;7.794;2023-02-21T01:21:40;99501.97;;;5.70;100.00
53908;BME280;40469;47.998;7.794;2023-02-21T01:24:24;99508.84;;;5.68;100.00
53908;BME280;40469;47.998;7.794;2023-02-21T01:27:07;99505.38;;;5.69;100.00
53908;BME280;40469;47.998;7.794;2023-02-21T01:29:51;99507.97;;;5.69;100.00
53908;BME280;40469;47.998;7.794;2023-02-21T01:32:35;99501.06;;;5.68;100.00
53908;BME280;40469;47.998;7.794;2023-02-21T01:35:19;99495.88;;;5.68;100.00
53908;BME280;40469;47.998;7.794;2023-02-21T01:38:03;99497.63;;;5.69;100.00
53908;BME280;40469;47.998;7.794;2023-02-21T01:40:47;99486.50;;;5.74;100.00
53908;BME280;40469;47.998;7.794;2023-02-21T01:43:31;99484.72;;;5.73;100.00
53908;BME280;40469;47.998;7.794;2023-02-21T01:46:16;99485.66;;;5.76;100.00
53908;BME280;40469;47.998;7.794;2023-02-21T01:49:02;99481.34;;;5.77;100.00
53908;BME280;40469;47.998;7.794;2023-02-21T01:51:48;99473.53;;;5.75;100.00
53908;BME280;40469;47.998;7.794;2023-02-21T01:54:33;99480.47;;;5.76;100.00
53908;BME280;40469;47.998;7.794;2023-02-21T01:57:18;99472.59;;;5.72;100.00
53908;BME280;40469;47.998;7.794;2023-02-21T02:00:04;99471.66;;;5.66;100.00
53908;BME280;40469;47.998;7.794;2023-02-21T02:02:52;99466.47;;;5.65;100.00
53908;BME280;40469;47.998;7.794;2023-02-21T02:05:37;99466.44;;;5.63;100.00
53908;BME280;40469;47.998;7.794;2023-02-21T02:08:22;99462.09;;;5.62;100.00
53908;BME280;40469;47.998;7.794;2023-02-21T02:16:48;99451.44;;;5.45;100.00
53908;BME280;40469;47.998;7.794;2023-02-21T02:39:32;99444.78;;;5.14;100.00
53908;BME280;40469;47.998;7.794;2023-02-21T02:42:42;99451.47;;;5.04;100.00
53908;BME280;40469;47.998;7.794;2023-02-21T02:44:49;99456.56;;;4.98;100.00
53908;BME280;40469;47.998;7.794;2023-02-21T02:47:18;99458.13;;;4.91;100.00
53908;BME280;40469;47.998;7.794;2023-02-21T02:49:44;99455.44;;;4.87;100.00
53908;BME280;40469;47.998;7.794;2023-02-21T02:52:10;99457.03;;;4.80;100.00
53908;BME280;40469;47.998;7.794;2023-02-21T02:54:35;99450.97;;;4.80;100.00
53908;BME280;40469;47.998;7.794;2023-02-21T02:57:01;99447.56;;;4.81;100.00
53908;BME280;40469;47.998;7.794;2023-02-21T02:59:27;99444.97;;;4.81;100.00
53908;BME280;40469;47.998;7.794;2023-02-21T03:15:26;99446.91;;;4.51;100.00
53908;BME280;40469;47.998;7.794;2023-02-21T03:17:55;99449.56;;;4.54;100.00
53908;BME280;40469;47.998;7.794;2023-02-21T03:20:21;99451.06;;;4.43;100.00
53908;BME280;40469;47.998;7.794;2023-02-21T03:22:47;99451.78;;;4.37;100.00
53908;BME280;40469;47.998;7.794;2023-02-21T03:25:14;99451.66;;;4.31;100.00
53908;BME280;40469;47.998;7.794;2023-02-21T03:27:40;99450.69;;;4.28;100.00
53908;BME280;40469;47.998;7.794;2023-02-21T03:30:07;99452.25;;;4.21;100.00
53908;BME280;40469;47.998;7.794;2023-02-21T03:32:37;99454.06;;;3.89;100.00
53908;BME280;40469;47.998;7.794;2023-02-21T03:35:03;99457.38;;;3.83;100.00
53908;BME280;40469;47.998;7.794;2023-02-21T03:37:37;99458.09;;;3.77;100.00
53908;BME280;40469;47.998;7.794;2023-02-21T03:40:03;99457.53;;;3.89;100.00
53908;BME280;40469;47.998;7.794;2023-02-21T03:42:29;99467.63;;;3.80;100.00
53908;BME280;40469;47.998;7.794;2023-02-21T03:44:54;99469.91;;;3.68;100.00
53908;BME280;40469;47.998;7.794;2023-02-21T03:47:19;99464.19;;;3.46;100.00
53908;BME280;40469;47.998;7.794;2023-02-21T03:49:45;99465.00;;;3.45;100.00
53908;BME280;40469;47.998;7.794;2023-02-21T03:52:10;99459.59;;;3.36;100.00
53908;BME280;40469;47.998;7.794;2023-02-21T03:54:37;99466.03;;;3.52;100.00
53908;BME280;40469;47.998;7.794;2023-02-21T03:57:02;99460.66;;;3.42;100.00
53908;BME280;40469;47.998;7.794;2023-02-21T03:59:27;99463.00;;;3.35;100.00
53908;BME280;40469;47.998;7.794;2023-02-21T04:01:52;99456.44;;;3.46;100.00
53908;BME280;40469;47.998;7.794;2023-02-21T04:04:18;99461.59;;;3.46;100.00
53908;BME280;40469;47.998;7.794;2023-02-21T04:06:43;99470.88;;;3.39;100.00
53908;BME280;40469;47.998;7.794;2023-02-21T04:09:08;99458.59;;;3.31;100.00
53908;BME280;40469;47.998;7.794;2023-02-21T04:11:33;99459.34;;;3.27;100.00
53908;BME280;40469;47.998;7.794;2023-02-21T04:13:59;99456.59;;;3.20;100.00
53908;BME280;40469;47.998;7.794;2023-02-21T04:16:24;99465.44;;;3.29;100.00
53908;BME280;40469;47.998;7.794;2023-02-21T04:18:49;99459.31;;;3.25;100.00
53908;BME280;40469;47.998;7.794;2023-02-21T04:21:16;99465.34;;;3.26;100.00
53908;BME280;40469;47.998;7.794;2023-02-21T04:23:41;99461.00;;;3.25;100.00
53908;BME280;40469;47.998;7.794;2023-02-21T04:26:07;99461.56;;;3.13;100.00
53908;BME280;40469;47.998;7.794;2023-02-21T04:28:32;99462.28;;;3.09;100.00
53908;BME280;40469;47.998;7.794;2023-02-21T04:30:57;99463.22;;;3.11;100.00
53908;BME280;40469;47.998;7.794;2023-02-21T04:33:22;99467.47;;;3.10;100.00
53908;BME280;40469;47.998;7.794;2023-02-21T04:35:48;99465.81;;;3.12;100.00
53908;BME280;40469;47.998;7.794;2023-02-21T04:38:14;99473.66;;;3.15;100.00
53908;BME280;40469;47.998;7.794;2023-02-21T04:40:39;99465.03;;;3.15;100.00
53908;BME280;40469;47.998;7.794;2023-02-21T04:43:04;99469.34;;;3.16;100.00
53908;BME280;40469;47.998;7.794;2023-02-21T04:45:30;99471.06;;;3.15;100.00
53908;BME280;40469;47.998;7.794;2023-02-21T04:47:55;99476.94;;;3.10;100.00
53908;BME280;40469;47.998;7.794;2023-02-21T04:50:20;99467.63;;;3.15;100.00
53908;BME280;40469;47.998;7.794;2023-02-21T04:52:46;99465.94;;;3.17;100.00
53908;BME280;40469;47.998;7.794;2023-02-21T04:55:11;99467.75;;;3.19;100.00
53908;BME280;40469;47.998;7.794;2023-02-21T04:57:36;99471.78;;;3.10;100.00
53908;BME280;40469;47.998;7.794;2023-02-21T05:00:02;99465.75;;;3.09;100.00
53908;BME280;40469;47.998;7.794;2023-02-21T05:02:30;99461.63;;;3.16;100.00
53908;BME280;40469;47.998;7.794;2023-02-21T05:04:55;99462.41;;;3.13;100.00
53908;BME280;40469;47.998;7.794;2023-02-21T05:07:21;99467.75;;;3.19;100.00
53908;BME280;40469;47.998;7.794;2023-02-21T05:09:46;99459.84;;;3.13;100.00
53908;BME280;40469;47.998;7.794;2023-02-21T05:12:12;99458.78;;;3.07;100.00
53908;BME280;40469;47.998;7.794;2023-02-21T05:14:37;99458.53;;;2.97;100.00
53908;BME280;40469;47.998;7.794;2023-02-21T05:17:03;99456.59;;;2.90;100.00
53908;BME280;40469;47.998;7.794;2023-02-21T05:19:29;99459.84;;;2.83;100.00
53908;BME280;40469;47.998;7.794;2023-02-21T05:21:58;99457.91;;;2.76;100.00
53908;BME280;40469;47.998;7.794;2023-02-21T05:24:23;99458.78;;;2.76;100.00
53908;BME280;40469;47.998;7.794;2023-02-21T05:26:49;99462.22;;;2.77;100.00
53908;BME280;40469;47.998;7.794;2023-02-21T05:29:15;99464.75;;;2.75;100.00
53908;BME280;40469;47.998;7.794;2023-02-21T05:31:40;99457.00;;;2.75;100.00
53908;BME280;40469;47.998;7.794;2023-02-21T05:34:05;99465.00;;;2.83;100.00
53908;BME280;40469;47.998;7.794;2023-02-21T05:36:31;99463.22;;;2.82;100.00
53908;BME280;40469;47.998;7.794;2023-02-21T05:38:56;99458.78;;;2.76;100.00
53908;BME280;40469;47.998;7.794;2023-02-21T05:41:21;99467.31;;;2.74;100.00
53908;BME280;40469;47.998;7.794;2023-02-21T05:43:47;99461.25;;;2.73;100.00
53908;BME280;40469;47.998;7.794;2023-02-21T05:46:27;99468.06;;;2.71;100.00
53908;BME280;40469;47.998;7.794;2023-02-21T05:48:53;99462.91;;;2.71;100.00
53908;BME280;40469;47.998;7.794;2023-02-21T05:51:18;99459.44;;;2.69;100.00
53908;BME280;40469;47.998;7.794;2023-02-21T05:53:44;99461.31;;;2.75;100.00
53908;BME280;40469;47.998;7.794;2023-02-21T05:56:10;99459.03;;;2.85;100.00
53908;BME280;40469;47.998;7.794;2023-02-21T05:58:35;99450.59;;;2.90;100.00
53908;BME280;40469;47.998;7.794;2023-02-21T06:01:00;99453.97;;;2.89;100.00
53908;BME280;40469;47.998;7.794;2023-02-21T06:03:25;99458.94;;;2.81;100.00
53908;BME280;40469;47.998;7.794;2023-02-21T06:05:51;99459.44;;;2.69;100.00
53908;BME280;40469;47.998;7.794;2023-02-21T06:08:16;99461.22;;;2.72;100.00
53908;BME280;40469;47.998;7.794;2023-02-21T06:10:41;99452.56;;;2.70;100.00
53908;BME280;40469;47.998;7.794;2023-02-21T06:13:06;99451.66;;;2.68;100.00
53908;BME280;40469;47.998;7.794;2023-02-21T06:15:31;99450.84;;;2.69;100.00
53908;BME280;40469;47.998;7.794;2023-02-21T06:17:57;99453.34;;;2.67;100.00
53908;BME280;40469;47.998;7.794;2023-02-21T06:20:22;99452.28;;;2.60;100.00
53908;BME280;40469;47.998;7.794;2023-02-21T06:22:47;99455.41;;;2.50;100.00
53908;BME280;40469;47.998;7.794;2023-02-21T06:25:13;99456.13;;;2.44;100.00
53908;BME280;40469;47.998;7.794;2023-02-21T06:27:38;99461.09;;;2.38;100.00
53908;BME280;40469;47.998;7.794;2023-02-21T06:30:04;99454.19;;;2.37;100.00
53908;BME280;40469;47.998;7.794;2023-02-21T06:32:30;99449.84;;;2.36;100.00
53908;BME280;40469;47.998;7.794;2023-02-21T06:34:55;99449.78;;;2.35;100.00
53908;BME280;40469;47.998;7.794;2023-02-21T06:37:21;99455.69;;;2.31;100.00
53908;BME280;40469;47.998;7.794;2023-02-21T06:39:49;99457.41;;;2.30;100.00
53908;BME280;40469;47.998;7.794;2023-02-21T06:42:17;99460.94;;;2.34;100.00
53908;BME280;40469;47.998;7.794;2023-02-21T06:44:43;99458.41;;;2.35;100.00
53908;BME280;40469;47.998;7.794;2023-02-21T06:47:09;99454.22;;;2.39;100.00
53908;BME280;40469;47.998;7.794;2023-02-21T06:49:34;99449.19;;;2.43;100.00
53908;BME280;40469;47.998;7.794;2023-02-21T06:51:59;99463.94;;;2.47;100.00
53908;BME280;40469;47.998;7.794;2023-02-21T06:54:25;99468.34;;;2.52;100.00
53908;BME280;40469;47.998;7.794;2023-02-21T06:56:50;99463.25;;;2.53;100.00
53908;BME280;40469;47.998;7.794;2023-02-21T06:59:15;99467.66;;;2.57;100.00
53908;BME280;40469;47.998;7.794;2023-02-21T07:01:40;99465.94;;;2.56;100.00
53908;BME280;40469;47.998;7.794;2023-02-21T07:04:06;99472.06;;;2.60;100.00
53908;BME280;40469;47.998;7.794;2023-02-21T07:06:31;99472.06;;;2.60;100.00
53908;BME280;40469;47.998;7.794;2023-02-21T07:08:57;99469.47;;;2.60;100.00
53908;BME280;40469;47.998;7.794;2023-02-21T07:11:22;99467.81;;;2.62;100.00
53908;BME280;40469;47.998;7.794;2023-02-21T07:13:49;99476.50;;;2.65;100.00
53908;BME280;40469;47.998;7.794;2023-02-21T07:16:14;99469.75;;;2.69;100.00
53908;BME280;40469;47.998;7.794;2023-02-21T07:18:42;99473.28;;;2.73;100.00
53908;BME280;40469;47.998;7.794;2023-02-21T07:21:07;99475.97;;;2.76;100.00
53908;BME280;40469;47.998;7.794;2023-02-21T07:23:32;99474.34;;;2.79;100.00
53908;BME280;40469;47.998;7.794;2023-02-21T07:25:57;99472.84;;;2.86;100.00
53908;BME280;40469;47.998;7.794;2023-02-21T07:28:23;99479.00;;;2.93;100.00
53908;BME280;40469;47.998;7.794;2023-02-21T07:30:48;99480.06;;;2.99;100.00
53908;BME280;40469;47.998;7.794;2023-02-21T07:33:13;99482.00;;;3.07;100.00
53908;BME280;40469;47.998;7.794;2023-02-21T07:35:38;99474.59;;;3.19;100.00
53908;BME280;40469;47.998;7.794;2023-02-21T07:38:04;99474.09;;;3.31;100.00
53908;BME280;40469;47.998;7.794;2023-02-21T07:40:29;99478.66;;;3.41;100.00
53908;BME280;40469;47.998;7.794;2023-02-21T07:42:54;99479.72;;;3.48;100.00
53908;BME280;40469;47.998;7.794;2023-02-21T07:45:20;99475.53;;;3.53;100.00
53908;BME280;40469;47.998;7.794;2023-02-21T07:47:45;99484.44;;;3.64;100.00
53908;BME280;40469;47.998;7.794;2023-02-21T07:50:10;99481.22;;;3.73;100.00
53908;BME280;40469;47.998;7.794;2023-02-21T07:52:36;99482.53;;;3.90;100.00
53908;BME280;40469;47.998;7.794;2023-02-21T07:55:01;99484.34;;;4.29;100.00
53908;BME280;40469;47.998;7.794;2023-02-21T07:57:26;99482.44;;;4.60;100.00
53908;BME280;40469;47.998;7.794;2023-02-21T07:59:52;99488.69;;;4.68;100.00
53908;BME280;40469;47.998;7.794;2023-02-21T08:02:17;99488.75;;;4.71;100.00
53908;BME280;40469;47.998;7.794;2023-02-21T08:04:42;99487.19;;;4.80;100.00
53908;BME280;40469;47.998;7.794;2023-02-21T08:07:08;99491.66;;;4.87;100.00
53908;BME280;40469;47.998;7.794;2023-02-21T08:09:33;99484.13;;;4.96;100.00
53908;BME280;40469;47.998;7.794;2023-02-21T08:11:59;99477.97;;;4.91;100.00
53908;BME280;40469;47.998;7.794;2023-02-21T08:14:24;99479.66;;;4.90;100.00
53908;BME280;40469;47.998;7.794;2023-02-21T08:16:49;99481.25;;;4.84;100.00
53908;BME280;40469;47.998;7.794;2023-02-21T08:19:15;99481.84;;;4.72;100.00
53908;BME280;40469;47.998;7.794;2023-02-21T08:21:47;99486.16;;;4.71;100.00
53908;BME280;40469;47.998;7.794;2023-02-21T08:24:12;99477.44;;;4.66;100.00
53908;BME280;40469;47.998;7.794;2023-02-21T08:26:38;99481.75;;;4.67;100.00
53908;BME280;40469;47.998;7.794;2023-02-21T08:29:05;99477.03;;;4.87;100.00
53908;BME280;40469;47.998;7.794;2023-02-21T08:31:37;99484.03;;;4.93;100.00
53908;BME280;40469;47.998;7.794;2023-02-21T08:34:02;99480.56;;;4.91;100.00
53908;BME280;40469;47.998;7.794;2023-02-21T08:36:35;99473.34;;;4.78;100.00
53908;BME280;40469;47.998;7.794;2023-02-21T08:39:01;99468.63;;;4.99;100.00
53908;BME280;40469;47.998;7.794;2023-02-21T08:41:42;99468.50;;;5.36;100.00
53908;BME280;40469;47.998;7.794;2023-02-21T08:44:08;99465.41;;;5.55;100.00
53908;BME280;40469;47.998;7.794;2023-02-21T08:46:34;99469.34;;;5.82;100.00
53908;BME280;40469;47.998;7.794;2023-02-21T08:49:00;99463.19;;;6.25;100.00
53908;BME280;40469;47.998;7.794;2023-02-21T08:51:25;99459.72;;;6.86;100.00
53908;BME280;40469;47.998;7.794;2023-02-21T08:53:51;99461.03;;;7.22;100.00
53908;BME280;40469;47.998;7.794;2023-02-21T08:56:19;99457.06;;;7.55;100.00
53908;BME280;40469;47.998;7.794;2023-02-21T08:58:45;99462.56;;;7.86;100.00
53908;BME280;40469;47.998;7.794;2023-02-21T09:01:10;99451.38;;;7.94;100.00
53908;BME280;40469;47.998;7.794;2023-02-21T09:03:35;99449.06;;;8.34;100.00
53908;BME280;40469;47.998;7.794;2023-02-21T09:06:00;99447.69;;;8.92;100.00
53908;BME280;40469;47.998;7.794;2023-02-21T09:08:27;99439.16;;;9.28;100.00
53908;BME280;40469;47.998;7.794;2023-02-21T09:10:54;99428.75;;;9.33;100.00
53908;BME280;40469;47.998;7.794;2023-02-21T09:13:24;99434.03;;;9.53;100.00
53908;BME280;40469;47.998;7.794;2023-02-21T09:15:49;99432.31;;;9.67;100.00
53908;BME280;40469;47.998;7.794;2023-02-21T09:18:15;99428.84;;;10.39;100.00
53908;BME280;40469;47.998;7.794;2023-02-21T09:20:40;99420.91;;;10.81;100.00
53908;BME280;40469;47.998;7.794;2023-02-21T09:23:06;99413.78;;;11.17;100.00
53908;BME280;40469;47.998;7.794;2023-02-21T09:25:31;99408.38;;;11.46;100.00
53908;BME280;40469;47.998;7.794;2023-02-21T09:27:57;99404.00;;;11.53;100.00
53908;BME280;40469;47.998;7.794;2023-02-21T09:30:24;99404.00;;;11.48;100.00
53908;BME280;40469;47.998;7.794;2023-02-21T09:32:50;99401.91;;;12.00;100.00
53908;BME280;40469;47.998;7.794;2023-02-21T09:35:16;99398.16;;;12.30;100.00
53908;BME280;40469;47.998;7.794;2023-02-21T09:37:42;99400.03;;;12.17;100.00
53908;BME280;40469;47.998;7.794;2023-02-21T09:40:54;99385.94;;;12.29;100.00
53908;BME280;40469;47.998;7.794;2023-02-21T09:42:53;99383.31;;;12.33;100.00
53908;BME280;40469;47.998;7.794;2023-02-21T09:45:21;99381.81;;;12.02;100.00
53908;BME280;40469;47.998;7.794;2023-02-21T09:47:48;99376.66;;;11.97;100.00
53908;BME280;40469;47.998;7.794;2023-02-21T09:50:15;99372.31;;;12.78;100.00
53908;BME280;40469;47.998;7.794;2023-02-21T09:52:42;99371.41;;;13.46;100.00
53908;BME280;40469;47.998;7.794;2023-02-21T09:57:52;99365.16;;;14.09;100.00
53908;BME280;40469;47.998;7.794;2023-02-21T10:00:19;99360.97;;;14.47;100.00
53908;BME280;40469;47.998;7.794;2023-02-21T10:02:50;99356.94;;;14.74;98.86
53908;BME280;40469;47.998;7.794;2023-02-21T10:07:56;99363.09;;;14.27;100.00
53908;BME280;40469;47.998;7.794;2023-02-21T10:20:55;99353.78;;;14.09;100.00
53908;BME280;40469;47.998;7.794;2023-02-21T10:23:41;99356.22;;;13.68;100.00
53908;BME280;40469;47.998;7.794;2023-02-21T10:26:11;99347.47;;;13.68;100.00
53908;BME280;40469;47.998;7.794;2023-02-21T10:28:37;99350.63;;;14.36;100.00
53908;BME280;40469;47.998;7.794;2023-02-21T10:31:08;99351.06;;;14.13;100.00
53908;BME280;40469;47.998;7.794;2023-02-21T10:33:35;99348.84;;;13.90;100.00
53908;BME280;40469;47.998;7.794;2023-02-21T10:36:01;99347.09;;;13.91;100.00
53908;BME280;40469;47.998;7.794;2023-02-21T10:38:26;99343.88;;;14.70;100.00
53908;BME280;40469;47.998;7.794;2023-02-21T10:40:53;99342.53;;;14.92;100.00
53908;BME280;40469;47.998;7.794;2023-02-21T10:43:21;99333.72;;;14.96;100.00
53908;BME280;40469;47.998;7.794;2023-02-21T10:45:52;99335.31;;;15.04;100.00
53908;BME280;40469;47.998;7.794;2023-02-21T10:48:20;99337.75;;;14.71;100.00
53908;BME280;40469;47.998;7.794;2023-02-21T10:51:03;99332.03;;;14.91;100.00
53908;BME280;40469;47.998;7.794;2023-02-21T10:53:31;99327.88;;;15.21;100.00
53908;BME280;40469;47.998;7.794;2023-02-21T10:56:19;99322.75;;;15.15;100.00
53908;BME280;40469;47.998;7.794;2023-02-21T10:58:45;99320.97;;;15.17;100.00
53908;BME280;40469;47.998;7.794;2023-02-21T11:03:36;99315.66;;;15.19;100.00
53908;BME280;40469;47.998;7.794;2023-02-21T11:06:06;99305.91;;;15.24;100.00
53908;BME280;40469;47.998;7.794;2023-02-21T11:08:38;99300.09;;;14.70;100.00
53908;BME280;40469;47.998;7.794;2023-02-21T11:11:04;99291.13;;;14.79;100.00
53908;BME280;40469;47.998;7.794;2023-02-21T11:13:29;99294.25;;;15.70;100.00
53908;BME280;40469;47.998;7.794;2023-02-21T11:16:06;99291.44;;;15.04;100.00
53908;BME280;40469;47.998;7.794;2023-02-21T11:18:32;99288.94;;;15.71;98.98
53908;BME280;40469;47.998;7.794;2023-02-21T11:20:57;99277.94;;;15.55;100.00
53908;BME280;40469;47.998;7.794;2023-02-21T11:23:34;99274.44;;;15.91;100.00
53908;BME280;40469;47.998;7.794;2023-02-21T11:26:05;99269.03;;;15.61;100.00
53908;BME280;40469;47.998;7.794;2023-02-21T11:28:34;99259.75;;;15.82;97.64
53908;BME280;40469;47.998;7.794;2023-02-21T11:31:05;99258.63;;;15.57;100.00
53908;BME280;40469;47.998;7.794;2023-02-21T11:33:35;99257.22;;;15.42;100.00
53908;BME280;40469;47.998;7.794;2023-02-21T11:36:16;99253.88;;;15.35;100.00
53908;BME280;40469;47.998;7.794;2023-02-21T11:39:00;99246.88;;;16.04;96.67
53908;BME280;40469;47.998;7.794;2023-02-21T11:41:30;99241.88;;;16.25;96.35
53908;BME280;40469;47.998;7.794;2023-02-21T11:43:55;99239.03;;;15.67;100.00
53908;BME280;40469;47.998;7.794;2023-02-21T11:51:25;99227.47;;;17.24;85.34
53908;BME280;40469;47.998;7.794;2023-02-21T11:53:50;99219.59;;;16.37;94.92
53908;BME280;40469;47.998;7.794;2023-02-21T11:56:23;99208.88;;;16.71;90.48
53908;BME280;40469;47.998;7.794;2023-02-21T11:58:56;99204.69;;;16.65;90.45
53908;BME280;40469;47.998;7.794;2023-02-21T12:11:54;99182.72;;;16.95;82.18
53908;BME280;40469;47.998;7.794;2023-02-21T12:19:44;99160.22;;;16.81;84.42
53908;BME280;40469;47.998;7.794;2023-02-21T12:27:02;99147.88;;;16.83;85.20
53908;BME280;40469;47.998;7.794;2023-02-21T12:34:51;99133.47;;;17.20;77.89
53908;BME280;40469;47.998;7.794;2023-02-21T12:39:56;99118.31;;;18.47;70.48
53908;BME280;40469;47.998;7.794;2023-02-21T12:47:59;99101.28;;;17.36;74.15
53908;BME280;40469;47.998;7.794;2023-02-21T12:50:29;99103.50;;;17.48;73.61
53908;BME280;40469;47.998;7.794;2023-02-21T12:53:00;99095.47;;;17.75;77.51
53908;BME280;40469;47.998;7.794;2023-02-21T13:05:47;99074.78;;;18.55;62.75
53908;BME280;40469;47.998;7.794;2023-02-21T13:08:22;99068.81;;;18.72;59.17
53908;BME280;40469;47.998;7.794;2023-02-21T13:13:15;99062.41;;;18.56;56.03
53908;BME280;40469;47.998;7.794;2023-02-21T13:15:43;99049.94;;;17.68;64.21
53908;BME280;40469;47.998;7.794;2023-02-21T13:20:40;99049.47;;;17.80;56.56
53908;BME280;40469;47.998;7.794;2023-02-21T13:28:43;99035.25;;;18.52;55.71
53908;BME280;40469;47.998;7.794;2023-02-21T13:31:43;99033.59;;;18.92;54.63
53908;BME280;40469;47.998;7.794;2023-02-21T13:34:04;99027.53;;;19.50;52.77
53908;BME280;40469;47.998;7.794;2023-02-21T13:41:43;99008.84;;;18.93;49.07
53908;BME280;40469;47.998;7.794;2023-02-21T13:44:12;99006.66;;;19.03;46.01
53908;BME280;40469;47.998;7.794;2023-02-21T13:51:50;98993.19;;;18.46;44.35
53908;BME280;40469;47.998;7.794;2023-02-21T13:54:20;98992.78;;;18.13;49.18
53908;BME280;40469;47.998;7.794;2023-02-21T13:56:47;98990.47;;;17.81;53.72
53908;BME280;40469;47.998;7.794;2023-02-21T14:01:50;98983.94;;;17.68;52.00
53908;BME280;40469;47.998;7.794;2023-02-21T14:07:00;98979.47;;;17.94;59.69
53908;BME280;40469;47.998;7.794;2023-02-21T14:09:25;98976.94;;;18.13;58.01
53908;BME280;40469;47.998;7.794;2023-02-21T14:11:51;98979.66;;;18.54;57.98
53908;BME280;40469;47.998;7.794;2023-02-21T14:14:24;98974.41;;;18.10;53.15
53908;BME280;40469;47.998;7.794;2023-02-21T14:16:51;98972.34;;;17.72;61.06
53908;BME280;40469;47.998;7.794;2023-02-21T14:19:25;98972.53;;;17.44;59.88
53908;BME280;40469;47.998;7.794;2023-02-21T14:24:43;98963.69;;;17.69;66.51
53908;BME280;40469;47.998;7.794;2023-02-21T14:29:38;98952.41;;;18.52;50.31
53908;BME280;40469;47.998;7.794;2023-02-21T14:36:59;98950.53;;;18.33;54.71
53908;BME280;40469;47.998;7.794;2023-02-21T14:39:33;98949.69;;;17.43;61.81
53908;BME280;40469;47.998;7.794;2023-02-21T14:42:12;98948.66;;;17.00;69.38
53908;BME280;40469;47.998;7.794;2023-02-21T14:44:54;98946.53;;;16.86;67.53
53908;BME280;40469;47.998;7.794;2023-02-21T14:50:09;98938.47;;;16.91;63.74
53908;BME280;40469;47.998;7.794;2023-02-21T15:03:09;98917.06;;;16.48;67.77
53908;BME280;40469;47.998;7.794;2023-02-21T15:08:22;98918.97;;;16.70;59.46
53908;BME280;40469;47.998;7.794;2023-02-21T15:10:49;98913.88;;;16.38;61.06
53908;BME280;40469;47.998;7.794;2023-02-21T15:15:46;98917.91;;;16.74;66.17
53908;BME280;40469;47.998;7.794;2023-02-21T15:18:33;98914.38;;;17.00;58.92
53908;BME280;40469;47.998;7.794;2023-02-21T15:23:27;98905.56;;;16.51;73.27
53908;BME280;40469;47.998;7.794;2023-02-21T15:25:54;98911.41;;;16.34;74.65
53908;BME280;40469;47.998;7.794;2023-02-21T15:28:24;98911.72;;;16.24;74.60
53908;BME280;40469;47.998;7.794;2023-02-21T15:30:54;98906.41;;;16.26;76.78
53908;BME280;40469;47.998;7.794;2023-02-21T15:33:20;98911.72;;;16.49;71.11
53908;BME280;40469;47.998;7.794;2023-02-21T15:35:48;98902.22;;;16.45;78.82
53908;BME280;40469;47.998;7.794;2023-02-21T15:38:20;98903.91;;;16.46;73.11
53908;BME280;40469;47.998;7.794;2023-02-21T15:40:47;98900.19;;;16.27;71.21
53908;BME280;40469;47.998;7.794;2023-02-21T15:43:23;98900.19;;;16.27;71.92
53908;BME280;40469;47.998;7.794;2023-02-21T15:45:51;98895.88;;;15.99;80.67
53908;BME280;40469;47.998;7.794;2023-02-21T15:48:17;98903.38;;;15.85;77.00
53908;BME280;40469;47.998;7.794;2023-02-21T15:50:43;98897.59;;;15.72;75.11
53908;BME280;40469;47.998;7.794;2023-02-21T15:53:17;98897.38;;;15.51;80.88
53908;BME280;40469;47.998;7.794;2023-02-21T15:55:43;98897.41;;;15.50;72.21
53908;BME280;40469;47.998;7.794;2023-02-21T15:58:22;98894.69;;;15.53;68.68
53908;BME280;40469;47.998;7.794;2023-02-21T16:01:08;98880.91;;;15.45;69.99